»·PEaware :: N211WP ktoa-ksan

N211WP :: ktoa-ksan

FLIGHT INFORMATION

Flight Status: Arrived
Operator: Privately registered:
United States
More flights under this callsign
Pilot: Wayne M. (1794)
Aircraft: Unknown
(DA40)
More flights by this aircraft type
Origin: ktoa Zamperini
United States
Destination: ksan San Diego Intl-Lindbergh
United States
More flights between these airports :: More routes between these airports
Route: +LIMBO V64 SLI V23 MZB
File this flight plan on PilotEdge
Remarks:
Altitude:
(Current/Filed)
5,000ft
Speed:
(Current/Filed)
135kts
Departed: 17-Jan-16 11:43 AM
Arrived: 17-Jan-16 12:56 PM
Distance/Time
Traveled:
86nm/1:13
Distance/Time
To Go:
Arrived

Flight Plot

Page will automatically refresh every two minutes.

Flight plan parsing failed; only flown route is shown


Map Options




Map Legend


Flown Route
Filed Route
Departure Airport
Arrival Airport
Navaid (VOR, NDB)
Fix

Horizontal Profiles

Position Reports

Time Latitude Longitude Heading Altitude Ground
Speed
17-Jan-16 11:11 33.804439 -118.345049 105 96ft 0kts
17-Jan-16 11:12 33.804439 -118.345049 105 96ft 0kts
17-Jan-16 11:13 33.804439 -118.345049 105 96ft 0kts
17-Jan-16 11:14 33.804439 -118.345049 105 96ft 0kts
17-Jan-16 11:15 33.804439 -118.345049 105 96ft 0kts
17-Jan-16 11:16 33.804439 -118.345049 105 96ft 0kts
17-Jan-16 11:17 33.804439 -118.345049 105 96ft 0kts
17-Jan-16 11:18 33.804439 -118.345049 105 96ft 0kts
17-Jan-16 11:19 33.804439 -118.345049 105 96ft 0kts
17-Jan-16 11:20 33.804439 -118.345049 105 96ft 0kts
17-Jan-16 11:21 33.804439 -118.345049 105 96ft 0kts
17-Jan-16 11:22 33.804439 -118.345049 105 96ft 0kts
17-Jan-16 11:23 33.804439 -118.345049 105 96ft 0kts
17-Jan-16 11:24 33.804439 -118.345049 105 96ft 0kts
17-Jan-16 11:25 33.804439 -118.345049 105 96ft 0kts
17-Jan-16 11:26 33.804439 -118.345049 105 96ft 0kts
17-Jan-16 11:27 33.804439 -118.345049 105 96ft 0kts
17-Jan-16 11:28 33.804439 -118.345049 105 96ft 0kts
17-Jan-16 11:29 33.804439 -118.345049 105 96ft 0kts
17-Jan-16 11:30 33.804439 -118.345049 105 96ft 0kts
17-Jan-16 11:31 33.804439 -118.345049 105 96ft 0kts
17-Jan-16 11:32 33.802833 -118.343128 129 103ft 20kts
17-Jan-16 11:33 33.802278 -118.340559 148 99ft 34kts
17-Jan-16 11:34 33.799652 -118.336836 116 101ft 14kts
17-Jan-16 11:35 33.798219 -118.333552 46 100ft 18kts
17-Jan-16 11:36 33.798981 -118.333416 9 99ft 0kts
17-Jan-16 11:37 33.798981 -118.333416 9 99ft 0kts
17-Jan-16 11:38 33.801889 -118.336237 305 97ft 82kts
17-Jan-16 11:39 33.811564 -118.354774 299 806ft 99kts
17-Jan-16 11:40 33.818925 -118.372587 301 1555ft 99kts
17-Jan-16 11:41 33.828482 -118.392631 301 2406ft 100kts
17-Jan-16 11:42 33.823774 -118.414911 190 3004ft 118kts
17-Jan-16 11:43 33.804080 -118.403378 141 3016ft 155kts
17-Jan-16 11:44 33.785899 -118.386727 141 3004ft 172kts
17-Jan-16 11:45 33.769313 -118.371419 141 3213ft 167kts
17-Jan-16 11:46 33.753313 -118.356485 141 3560ft 161kts
17-Jan-16 11:47 33.732295 -118.336596 141 4036ft 158kts
17-Jan-16 11:48 33.712029 -118.317106 141 4504ft 158kts
17-Jan-16 11:49 33.687510 -118.293181 141 4980ft 164kts
17-Jan-16 11:50 33.667866 -118.273980 141 5000ft 176kts
17-Jan-16 11:51 33.644688 -118.251418 141 4997ft 181kts
17-Jan-16 11:52 33.623539 -118.230914 141 4986ft 182kts
17-Jan-16 11:53 33.597533 -118.205799 141 4985ft 182kts
17-Jan-16 11:54 33.577380 -118.176037 117 4973ft 184kts
17-Jan-16 11:55 33.560026 -118.136037 118 4969ft 184kts
17-Jan-16 11:56 33.545218 -118.102311 118 4974ft 184kts
17-Jan-16 11:57 33.529314 -118.066231 118 4984ft 184kts
17-Jan-16 11:58 33.516802 -118.037897 118 4985ft 185kts
17-Jan-16 11:59 33.503567 -118.007966 118 4987ft 185kts
17-Jan-16 12:00 33.486980 -117.970460 118 4988ft 187kts
17-Jan-16 12:01 33.469093 -117.930118 118 4989ft 188kts
17-Jan-16 12:02 33.452954 -117.893705 118 4990ft 188kts
17-Jan-16 12:03 33.433852 -117.850190 119 4991ft 188kts
17-Jan-16 12:04 33.415131 -117.807983 119 4993ft 188kts
17-Jan-16 12:05 33.396596 -117.766331 118 4996ft 188kts
17-Jan-16 12:06 33.376002 -117.720260 116 4999ft 190kts
17-Jan-16 12:07 33.352792 -117.668119 116 4997ft 191kts
17-Jan-16 12:08 33.327967 -117.615677 138 4967ft 195kts
17-Jan-16 12:09 33.283684 -117.582907 148 4997ft 189kts
17-Jan-16 12:10 33.241891 -117.552840 148 4997ft 173kts
17-Jan-16 12:11 33.202322 -117.524482 148 4998ft 168kts
17-Jan-16 12:12 33.168855 -117.500538 148 4997ft 168kts
17-Jan-16 12:13 33.136161 -117.477162 148 4996ft 168kts
17-Jan-16 12:14 33.103414 -117.453765 148 4994ft 168kts
17-Jan-16 12:15 33.070940 -117.430597 148 4993ft 168kts
17-Jan-16 12:16 33.039129 -117.407922 148 4992ft 167kts
17-Jan-16 12:17 33.007823 -117.385626 148 4992ft 167kts
17-Jan-16 12:18 32.976871 -117.363596 148 4980ft 154kts
17-Jan-16 12:19 32.950013 -117.344497 148 4990ft 140kts
17-Jan-16 12:20 32.923470 -117.325644 148 4995ft 146kts
17-Jan-16 12:21 32.899127 -117.303873 107 4990ft 147kts
17-Jan-16 12:22 32.893211 -117.272849 101 4996ft 147kts
17-Jan-16 12:23 32.887313 -117.241733 101 5006ft 147kts
17-Jan-16 12:24 32.881858 -117.215691 106 5007ft 148kts
17-Jan-16 12:25 32.874105 -117.187100 106 5007ft 148kts
17-Jan-16 12:26 32.865148 -117.154313 106 5008ft 148kts
17-Jan-16 12:27 32.856348 -117.122251 106 5009ft 148kts
17-Jan-16 12:28 32.847674 -117.090605 106 5010ft 148kts
17-Jan-16 12:29 32.839020 -117.058738 106 5011ft 148kts
17-Jan-16 12:30 32.830240 -117.026048 106 5012ft 148kts
17-Jan-16 12:31 32.821788 -116.994199 106 5013ft 148kts
17-Jan-16 12:32 32.813463 -116.962404 106 5014ft 148kts
17-Jan-16 12:33 32.805133 -116.930117 106 5016ft 148kts
17-Jan-16 12:34 32.797053 -116.898295 106 5017ft 148kts
17-Jan-16 12:35 32.788988 -116.866186 106 5017ft 148kts
17-Jan-16 12:36 32.780856 -116.833832 106 5017ft 148kts
17-Jan-16 12:37 32.763469 -116.811855 188 5008ft 148kts
17-Jan-16 12:38 32.734676 -116.819011 191 5016ft 149kts
17-Jan-16 12:39 32.705682 -116.826313 191 5014ft 150kts
17-Jan-16 12:40 32.685549 -116.849315 255 5011ft 149kts
17-Jan-16 12:41 32.677223 -116.886872 256 5011ft 149kts
17-Jan-16 12:42 32.673312 -116.925436 278 5010ft 148kts
17-Jan-16 12:43 32.680348 -116.963829 285 4370ft 158kts
17-Jan-16 12:44 32.688950 -117.001968 286 3609ft 149kts
17-Jan-16 12:45 32.697299 -117.038353 287 2904ft 127kts
17-Jan-16 12:46 32.704502 -117.069474 288 2268ft 117kts
17-Jan-16 12:47 32.711772 -117.099948 289 1662ft 115kts
17-Jan-16 12:48 32.718918 -117.129270 288 1081ft 114kts
17-Jan-16 12:49 32.724776 -117.153422 289 603ft 104kts
17-Jan-16 12:50 32.730964 -117.178958 290 86ft 81kts
17-Jan-16 12:51 32.734760 -117.190696 64 18ft 12kts
17-Jan-16 12:52 32.734961 -117.190242 65 18ft 0kts

Navigation Log

Ident Type
Flight plan parsing failed, navigation log unavailable